Time;durP1;ratioP1;P1;durP2;ratioP2;P2;SDS_P1;SDS_P2;PMS_P1;PMS_P2;Temp;Humidity;BMP_temperature;BMP_pressure;BME280_temperature;BME280_humidity;BME280_pressure;Samples;Min_cycle;Max_cycle;Signal;HPM_P1;HPM_P2
2021/06/28 00:02:08;;;;;;;5.97;5.40;;;16.80;99.90;;;;;;5087807;28;20206;-68
2021/06/28 00:04:34;;;;;;;7.20;6.60;;;16.70;99.90;;;;;;5088619;28;20212;-69
2021/06/28 00:06:59;;;;;;;7.00;5.87;;;16.70;99.90;;;;;;5087967;28;20599;-68
2021/06/28 00:09:25;;;;;;;6.40;5.90;;;16.70;99.90;;;;;;5087852;28;20735;-68
2021/06/28 00:11:50;;;;;;;6.37;5.73;;;16.70;99.90;;;;;;5088525;28;20168;-68
2021/06/28 00:14:16;;;;;;;6.80;6.10;;;16.60;99.90;;;;;;5086917;28;20197;-68
2021/06/28 00:16:42;;;;;;;6.73;6.17;;;16.60;99.90;;;;;;5089071;28;20195;-69
2021/06/28 00:19:08;;;;;;;6.10;5.60;;;16.60;99.90;;;;;;5088965;28;20218;-68
2021/06/28 00:21:33;;;;;;;7.67;6.93;;;16.50;99.90;;;;;;5089343;28;20188;-68
2021/06/28 00:23:59;;;;;;;6.97;6.30;;;16.40;99.90;;;;;;5069243;28;20200;-68
2021/06/28 00:26:24;;;;;;;8.43;6.57;;;16.40;99.90;;;;;;5087595;28;20176;-68
2021/06/28 00:28:50;;;;;;;6.17;5.63;;;16.40;99.90;;;;;;5088601;28;20169;-67
2021/06/28 00:31:15;;;;;;;7.03;6.43;;;16.40;99.90;;;;;;5089755;28;20692;-68
2021/06/28 00:33:41;;;;;;;8.77;6.33;;;16.40;99.90;;;;;;5088269;28;20192;-68
2021/06/28 00:36:06;;;;;;;6.67;6.13;;;16.40;99.90;;;;;;5087982;28;20182;-67
2021/06/28 00:38:32;;;;;;;6.60;6.00;;;16.40;99.90;;;;;;5088758;28;20253;-68
2021/06/28 00:40:57;;;;;;;6.33;5.73;;;16.40;99.90;;;;;;5069151;28;20182;-69
2021/06/28 00:43:23;;;;;;;6.43;5.83;;;16.40;99.90;;;;;;5086994;28;20204;-69
2021/06/28 00:45:48;;;;;;;7.03;6.43;;;16.40;99.90;;;;;;5088241;28;20537;-68
2021/06/28 00:48:17;;;;;;;6.23;5.63;;;16.50;99.90;;;;;;5086947;28;20182;-67
2021/06/28 00:50:51;;;;;;;6.93;6.33;;;16.50;99.90;;;;;;5088143;28;20215;-67
2021/06/28 00:53:20;;;;;;;6.27;5.67;;;16.50;99.90;;;;;;5086613;28;20195;-68
2021/06/28 00:55:45;;;;;;;6.43;5.93;;;16.50;99.90;;;;;;5088789;28;20180;-68
2021/06/28 00:58:12;;;;;;;7.23;6.53;;;16.40;99.90;;;;;;5087675;28;20705;-68
2021/06/28 01:00:40;;;;;;;6.67;6.07;;;16.40;99.90;;;;;;5088017;28;20241;-67
2021/06/28 01:03:07;;;;;;;7.33;6.63;;;16.40;99.90;;;;;;5087124;28;20200;-67
2021/06/28 01:05:35;;;;;;;7.57;6.77;;;16.30;99.90;;;;;;5086272;28;20212;-67
2021/06/28 01:08:02;;;;;;;6.77;6.17;;;16.20;99.90;;;;;;5087952;28;20169;-66
2021/06/28 01:10:28;;;;;;;7.10;6.40;;;16.20;99.90;;;;;;5087372;28;20245;-66
2021/06/28 01:12:54;;;;;;;7.20;6.50;;;16.20;99.90;;;;;;5087763;28;20194;-67
2021/06/28 01:15:21;;;;;;;7.23;6.63;;;16.20;99.90;;;;;;5087120;28;20240;-66
2021/06/28 01:17:47;;;;;;;7.07;6.47;;;16.20;99.90;;;;;;5087763;28;20184;-66
2021/06/28 01:20:25;;;;;;;7.80;7.10;;;16.20;99.90;;;;;;5090218;28;20210;-66
2021/06/28 01:22:53;;;;;;;7.27;6.57;;;16.20;99.90;;;;;;5084291;28;20668;-66
2021/06/28 01:25:22;;;;;;;7.20;6.60;;;16.20;99.90;;;;;;5090821;28;20265;-66
2021/06/28 01:27:48;;;;;;;7.33;6.73;;;16.20;99.90;;;;;;5084040;28;20204;-66
2021/06/28 01:30:17;;;;;;;7.37;6.67;;;16.20;99.90;;;;;;5074666;28;20666;-66
2021/06/28 01:32:44;;;;;;;7.77;6.60;;;16.20;99.90;;;;;;5089958;28;20173;-67
2021/06/28 01:35:12;;;;;;;6.87;6.27;;;16.20;99.90;;;;;;5090457;28;20183;-67
2021/06/28 01:37:38;;;;;;;7.13;6.53;;;16.20;99.90;;;;;;5090117;28;20277;-67
2021/06/28 01:40:07;;;;;;;7.30;6.70;;;16.20;99.90;;;;;;5091358;28;20205;-67
2021/06/28 01:42:35;;;;;;;7.07;6.43;;;16.30;99.90;;;;;;5089020;28;20176;-66
2021/06/28 01:45:01;;;;;;;7.03;6.43;;;16.30;99.90;;;;;;5091426;28;20196;-68
2021/06/28 01:47:27;;;;;;;7.13;6.47;;;16.30;99.90;;;;;;5090175;28;20275;-69
2021/06/28 01:49:53;;;;;;;8.03;7.23;;;16.30;99.90;;;;;;5091379;28;20287;-66
2021/06/28 01:52:18;;;;;;;7.97;7.20;;;16.20;99.90;;;;;;5090344;28;20181;-67
2021/06/28 01:54:44;;;;;;;8.20;7.40;;;16.20;99.90;;;;;;5090323;28;20196;-66
2021/06/28 01:57:09;;;;;;;8.47;7.57;;;16.20;99.90;;;;;;5091036;28;20196;-66
2021/06/28 01:59:37;;;;;;;7.10;6.50;;;16.20;99.90;;;;;;5089807;28;20193;-67
2021/06/28 02:02:04;;;;;;;8.47;7.67;;;16.10;99.90;;;;;;5083632;28;20176;-67
2021/06/28 02:04:30;;;;;;;8.13;7.33;;;16.10;99.90;;;;;;5090577;28;20207;-67
2021/06/28 02:06:57;;;;;;;8.80;7.90;;;16.10;99.90;;;;;;5090887;28;20676;-67
2021/06/28 02:09:22;;;;;;;8.93;8.03;;;16.10;99.90;;;;;;5091487;28;20204;-67
2021/06/28 02:11:49;;;;;;;9.60;8.70;;;16.20;99.90;;;;;;5089662;28;20184;-67
2021/06/28 02:14:15;;;;;;;9.80;8.80;;;16.10;99.90;;;;;;5089475;28;20172;-67
2021/06/28 02:16:45;;;;;;;9.73;8.83;;;16.20;99.90;;;;;;5089208;28;20501;-67
2021/06/28 02:19:12;;;;;;;9.90;8.63;;;16.10;99.90;;;;;;5090597;28;20440;-67
2021/06/28 02:21:40;;;;;;;11.27;10.03;;;16.10;99.90;;;;;;5088803;28;20550;-68
2021/06/28 02:24:07;;;;;;;11.10;10.00;;;16.10;99.90;;;;;;5091371;28;20193;-67
2021/06/28 02:26:33;;;;;;;11.87;9.80;;;16.20;99.90;;;;;;5089988;28;20267;-67
2021/06/28 02:28:58;;;;;;;11.00;9.90;;;16.10;99.90;;;;;;5089712;28;20292;-67
2021/06/28 02:31:24;;;;;;;11.63;10.40;;;16.10;99.90;;;;;;5089654;28;20220;-67
2021/06/28 02:33:51;;;;;;;12.23;10.93;;;16.10;99.90;;;;;;5089181;28;20230;-67
2021/06/28 02:36:18;;;;;;;13.10;11.77;;;16.20;99.90;;;;;;5090307;28;20358;-67
2021/06/28 02:38:44;;;;;;;14.10;12.60;;;16.20;99.90;;;;;;5089071;28;20808;-67
2021/06/28 02:41:10;;;;;;;14.63;13.03;;;16.20;99.90;;;;;;5072102;28;20169;-66
2021/06/28 02:43:37;;;;;;;12.43;11.07;;;16.20;99.90;;;;;;5089065;28;20222;-67
2021/06/28 02:46:03;;;;;;;11.37;10.27;;;16.10;99.90;;;;;;5089757;28;20177;-67
2021/06/28 02:48:29;;;;;;;10.63;9.57;;;16.10;99.90;;;;;;5090036;28;20661;-70
2021/06/28 02:50:55;;;;;;;10.67;9.57;;;16.00;99.90;;;;;;5081010;28;20208;-67
2021/06/28 02:53:21;;;;;;;11.13;9.40;;;16.00;99.90;;;;;;5085736;28;20188;-67
2021/06/28 02:55:49;;;;;;;12.00;10.03;;;16.00;99.90;;;;;;5085335;28;20185;-66
2021/06/28 02:58:16;;;;;;;11.50;10.27;;;16.00;99.90;;;;;;5087032;28;20184;-67
2021/06/28 03:00:41;;;;;;;11.53;10.13;;;16.00;99.90;;;;;;5088028;28;20291;-66
2021/06/28 03:03:07;;;;;;;10.90;9.77;;;16.10;99.90;;;;;;5086152;28;20332;-67
2021/06/28 03:05:33;;;;;;;11.20;10.10;;;16.10;99.90;;;;;;5088400;28;20179;-66
2021/06/28 03:07:58;;;;;;;12.17;10.93;;;16.00;99.90;;;;;;5088187;28;20193;-66
2021/06/28 03:10:24;;;;;;;13.93;12.37;;;16.00;99.90;;;;;;5089582;28;20252;-67
2021/06/28 03:12:50;;;;;;;13.07;11.67;;;16.00;99.90;;;;;;5087970;28;20648;-66
2021/06/28 03:15:18;;;;;;;12.87;11.57;;;16.10;99.90;;;;;;5089425;28;20184;-66
2021/06/28 03:17:44;;;;;;;12.20;10.70;;;16.10;99.90;;;;;;5089677;28;20176;-66
2021/06/28 03:20:12;;;;;;;15.20;12.27;;;16.20;99.90;;;;;;5087611;28;20786;-67
2021/06/28 03:22:39;;;;;;;13.70;11.53;;;16.20;99.90;;;;;;5088127;28;20187;-66
2021/06/28 03:25:07;;;;;;;13.80;12.10;;;16.30;99.90;;;;;;5086402;28;20580;-66
2021/06/28 03:27:33;;;;;;;13.73;11.80;;;16.40;99.90;;;;;;5089403;28;20176;-66
2021/06/28 03:29:59;;;;;;;14.07;12.23;;;16.40;99.90;;;;;;5088838;28;20200;-66
2021/06/28 03:32:24;;;;;;;15.30;13.73;;;16.40;99.90;;;;;;5088997;28;20242;-66
2021/06/28 03:34:50;;;;;;;15.50;13.17;;;16.50;99.90;;;;;;5090261;28;20208;-66
2021/06/28 03:37:16;;;;;;;14.73;12.57;;;16.50;99.90;;;;;;5088277;28;20637;-66
2021/06/28 03:39:41;;;;;;;15.60;13.90;;;16.60;99.90;;;;;;5090020;28;20203;-66
2021/06/28 03:42:07;;;;;;;13.40;12.00;;;17.40;99.90;;;;;;5089173;28;20196;-66
2021/06/28 03:44:33;;;;;;;14.20;12.40;;;18.70;99.90;;;;;;5092740;28;20211;-66
2021/06/28 03:46:58;;;;;;;12.87;11.50;;;19.80;99.90;;;;;;5091163;28;20600;-66
2021/06/28 03:49:24;;;;;;;14.70;12.07;;;20.40;99.90;;;;;;5091258;28;20222;-67
2021/06/28 03:51:49;;;;;;;13.57;12.17;;;20.90;99.90;;;;;;5092248;28;20176;-67
2021/06/28 03:54:15;;;;;;;15.50;12.57;;;21.20;99.90;;;;;;5090000;28;20609;-66
2021/06/28 03:56:40;;;;;;;14.27;12.37;;;20.30;99.90;;;;;;5090701;28;20218;-67
2021/06/28 03:59:05;;;;;;;13.50;12.03;;;19.30;99.90;;;;;;5090780;28;20208;-67
2021/06/28 04:01:31;;;;;;;14.97;12.83;;;19.10;99.90;;;;;;5091200;28;20192;-66
2021/06/28 04:03:56;;;;;;;14.10;12.07;;;20.30;99.90;;;;;;5096151;28;20574;-67
2021/06/28 04:06:23;;;;;;;12.97;11.60;;;21.30;99.90;;;;;;5090897;28;20200;-67
2021/06/28 04:08:49;;;;;;;12.53;11.20;;;22.20;99.90;;;;;;5089072;28;20182;-67
2021/06/28 04:11:17;;;;;;;13.93;11.17;;;22.90;99.90;;;;;;5087987;28;20331;-67
2021/06/28 04:13:43;;;;;;;13.27;11.87;;;22.80;99.90;;;;;;5089217;28;20237;-67
2021/06/28 04:16:08;;;;;;;12.70;11.50;;;22.90;99.90;;;;;;5087544;28;20656;-67
2021/06/28 04:18:34;;;;;;;13.07;11.77;;;23.20;99.90;;;;;;5088530;28;20192;-67
2021/06/28 04:21:00;;;;;;;15.17;13.00;;;21.80;99.90;;;;;;5088061;28;20584;-67
2021/06/28 04:23:25;;;;;;;14.03;12.53;;;20.50;99.90;;;;;;5088575;28;20283;-67
2021/06/28 04:25:51;;;;;;;15.17;13.20;;;19.60;99.90;;;;;;5089697;28;20237;-67
2021/06/28 04:28:16;;;;;;;15.37;13.10;;;19.00;99.90;;;;;;5086008;28;20191;-66
2021/06/28 04:30:42;;;;;;;15.60;13.17;;;18.60;99.90;;;;;;5088711;28;20200;-67
2021/06/28 04:33:07;;;;;;;16.50;13.53;;;18.50;99.90;;;;;;5089318;28;20259;-67
2021/06/28 04:35:33;;;;;;;15.77;14.00;;;18.40;99.90;;;;;;5088418;28;20177;-66
2021/06/28 04:37:59;;;;;;;14.93;13.33;;;18.40;99.90;;;;;;5088282;28;20184;-66
2021/06/28 04:40:28;;;;;;;15.90;13.80;;;18.40;99.90;;;;;;5087788;28;20212;-67
2021/06/28 04:42:55;;;;;;;17.67;14.43;;;18.40;99.90;;;;;;5088133;28;20191;-66
2021/06/28 04:45:21;;;;;;;17.50;14.13;;;18.40;99.90;;;;;;5088405;28;20184;-66
2021/06/28 04:47:48;;;;;;;17.03;14.27;;;18.50;99.90;;;;;;5088324;28;20231;-66
2021/06/28 04:50:14;;;;;;;18.60;15.80;;;18.60;99.90;;;;;;5086068;28;20212;-66
2021/06/28 04:52:41;;;;;;;18.03;14.33;;;18.60;99.90;;;;;;5088235;28;20266;-66
2021/06/28 04:55:09;;;;;;;16.03;14.17;;;18.60;99.90;;;;;;5090455;28;20176;-66
2021/06/28 04:57:35;;;;;;;13.97;12.23;;;18.60;99.90;;;;;;5091335;28;20192;-67
2021/06/28 05:00:01;;;;;;;15.30;11.80;;;18.70;99.90;;;;;;5092511;28;20566;-66
2021/06/28 05:02:26;;;;;;;12.47;11.17;;;18.80;99.90;;;;;;5090738;28;20195;-66
2021/06/28 05:04:52;;;;;;;11.07;9.97;;;18.90;99.90;;;;;;5092192;28;20203;-65
2021/06/28 05:07:18;;;;;;;10.80;9.70;;;18.90;99.90;;;;;;5091589;28;20185;-65
2021/06/28 05:09:45;;;;;;;12.23;10.27;;;19.00;99.90;;;;;;5092205;28;20196;-65
2021/06/28 05:12:12;;;;;;;10.43;8.97;;;19.10;99.90;;;;;;5091908;28;20182;-66
2021/06/28 05:14:38;;;;;;;8.37;7.33;;;19.20;99.90;;;;;;5071183;28;20774;-66
2021/06/28 05:17:05;;;;;;;9.33;7.20;;;19.20;99.90;;;;;;5092494;28;20568;-65
2021/06/28 05:19:30;;;;;;;8.80;7.70;;;19.30;99.90;;;;;;5091222;28;20341;-66
2021/06/28 05:21:56;;;;;;;8.27;7.17;;;19.30;99.90;;;;;;5072954;28;20271;-66
2021/06/28 05:24:21;;;;;;;7.03;6.33;;;19.50;99.90;;;;;;5091880;28;20208;-66
2021/06/28 05:26:47;;;;;;;7.97;6.00;;;19.70;99.90;;;;;;5091997;28;20279;-66
2021/06/28 05:29:12;;;;;;;7.27;6.30;;;19.90;99.90;;;;;;5091395;28;20206;-66
2021/06/28 05:31:38;;;;;;;15.57;14.00;;;20.10;99.90;;;;;;5080586;28;20187;-66
2021/06/28 05:34:03;;;;;;;6.60;5.40;;;20.20;99.90;;;;;;5091879;28;20254;-66
2021/06/28 05:36:29;;;;;;;6.70;6.10;;;20.30;99.90;;;;;;5091515;28;20551;-67
2021/06/28 05:38:55;;;;;;;6.37;5.50;;;20.30;99.90;;;;;;5091795;28;20200;-67
2021/06/28 05:41:20;;;;;;;5.80;5.30;;;20.40;99.90;;;;;;5091470;28;20191;-67
2021/06/28 05:43:47;;;;;;;6.17;5.60;;;20.50;99.90;;;;;;5091101;28;20208;-67
2021/06/28 05:46:12;;;;;;;5.33;4.93;;;20.50;99.90;;;;;;5087673;28;20191;-66
2021/06/28 05:48:38;;;;;;;6.83;4.50;;;20.50;99.90;;;;;;5089106;28;20656;-67
2021/06/28 05:51:04;;;;;;;5.73;5.13;;;20.50;99.90;;;;;;5107798;22;20311;-75
2021/06/28 05:53:29;;;;;;;6.50;5.00;;;20.60;99.90;;;;;;5087886;28;20658;-76
2021/06/28 05:55:58;;;;;;;5.40;4.90;;;20.70;99.90;;;;;;5075909;28;20265;-75
2021/06/28 05:58:25;;;;;;;5.10;4.63;;;20.70;99.90;;;;;;5083679;28;20174;-76
2021/06/28 06:00:51;;;;;;;4.87;4.47;;;20.80;99.90;;;;;;5086840;28;21949;-76
2021/06/28 06:03:17;;;;;;;5.73;4.50;;;21.10;99.90;;;;;;5091552;28;20306;-75
2021/06/28 06:05:42;;;;;;;5.03;4.53;;;20.90;99.90;;;;;;5087957;28;20180;-73
2021/06/28 06:08:08;;;;;;;5.63;4.43;;;21.10;99.90;;;;;;5088357;28;20188;-74
2021/06/28 06:10:33;;;;;;;5.50;4.33;;;21.20;99.90;;;;;;5090446;28;20286;-74
2021/06/28 06:12:59;;;;;;;5.03;4.53;;;21.40;99.90;;;;;;5088903;28;20648;-74
2021/06/28 06:15:25;;;;;;;4.73;4.30;;;21.30;99.90;;;;;;5087472;28;20184;-74
2021/06/28 06:17:50;;;;;;;5.77;4.00;;;21.50;99.90;;;;;;5079809;28;20257;-76
2021/06/28 06:20:16;;;;;;;5.30;4.80;;;21.90;99.90;;;;;;5090888;28;20205;-74
2021/06/28 06:22:42;;;;;;;8.90;4.57;;;21.90;99.90;;;;;;5089820;28;20260;-74
2021/06/28 06:25:09;;;;;;;7.83;5.10;;;22.00;99.90;;;;;;5091198;28;20358;-74
2021/06/28 06:27:35;;;;;;;4.93;4.53;;;22.10;99.90;;;;;;5072997;28;20206;-75
2021/06/28 06:30:00;;;;;;;4.80;4.40;;;22.30;99.90;;;;;;5084517;28;20296;-76
2021/06/28 06:32:26;;;;;;;7.47;5.10;;;22.30;99.90;;;;;;5068511;28;20266;-75
2021/06/28 06:34:51;;;;;;;4.63;4.20;;;22.20;99.90;;;;;;5093939;28;20178;-76
2021/06/28 06:37:17;;;;;;;4.87;4.30;;;22.30;99.90;;;;;;5097316;28;20205;-75
2021/06/28 06:39:43;;;;;;;4.60;4.17;;;22.40;99.90;;;;;;5087130;28;20200;-74
2021/06/28 06:42:09;;;;;;;4.47;4.07;;;22.40;99.90;;;;;;5064255;28;20654;-74
2021/06/28 06:44:35;;;;;;;5.07;4.10;;;22.30;99.90;;;;;;5056981;28;20311;-75
2021/06/28 06:47:00;;;;;;;4.20;3.80;;;22.20;99.90;;;;;;5079718;28;20232;-75
2021/06/28 06:49:26;;;;;;;4.10;3.70;;;22.30;99.90;;;;;;5091457;28;20218;-74
2021/06/28 06:51:52;;;;;;;4.37;3.70;;;22.40;99.90;;;;;;5089035;28;20222;-75
2021/06/28 06:54:18;;;;;;;4.47;3.83;;;22.40;99.90;;;;;;5073044;28;20188;-74
2021/06/28 06:56:44;;;;;;;5.00;3.57;;;22.50;99.90;;;;;;5092297;28;20222;-75
2021/06/28 06:59:09;;;;;;;5.00;3.97;;;22.70;99.90;;;;;;5090310;28;20277;-75
2021/06/28 07:01:36;;;;;;;4.17;3.77;;;22.90;99.90;;;;;;5075726;28;20624;-75
2021/06/28 07:04:02;;;;;;;5.73;4.10;;;22.90;99.90;;;;;;5095284;28;20296;-75
2021/06/28 07:06:28;;;;;;;3.97;3.53;;;22.90;99.90;;;;;;5096861;28;20212;-75
2021/06/28 07:08:53;;;;;;;5.33;4.13;;;22.80;99.90;;;;;;5093287;28;20296;-75
2021/06/28 07:11:19;;;;;;;4.30;3.70;;;22.90;99.90;;;;;;5093103;28;20643;-76
2021/06/28 07:13:50;;;;;;;4.60;4.20;;;23.10;99.90;;;;;;5093519;28;20631;-74
2021/06/28 07:16:17;;;;;;;4.95;4.28;;;23.20;99.90;;;;;;5090188;28;20188;-75
2021/06/28 07:18:42;;;;;;;4.82;4.30;;;23.30;99.90;;;;;;5068516;28;20660;-75
2021/06/28 07:21:08;;;;;;;4.43;3.80;;;23.60;99.90;;;;;;5089584;28;20208;-75
2021/06/28 07:23:33;;;;;;;4.70;4.30;;;23.60;99.90;;;;;;5072972;28;20288;-76
2021/06/28 07:25:59;;;;;;;4.55;4.15;;;23.80;99.90;;;;;;5088713;28;20195;-76
2021/06/28 07:28:25;;;;;;;4.90;4.40;;;23.80;99.90;;;;;;5090176;28;20179;-75
2021/06/28 07:30:51;;;;;;;4.78;4.30;;;23.70;99.90;;;;;;5089029;28;20205;-75
2021/06/28 07:33:18;;;;;;;6.28;3.95;;;23.70;99.90;;;;;;5071754;28;20248;-78
2021/06/28 07:35:44;;;;;;;4.47;4.07;;;23.80;99.90;;;;;;5087232;28;20181;-75
2021/06/28 07:38:09;;;;;;;4.82;3.90;;;23.90;99.90;;;;;;5089063;28;20552;-76
2021/06/28 07:40:35;;;;;;;4.47;4.10;;;23.90;99.90;;;;;;5090091;28;20206;-76
2021/06/28 07:43:01;;;;;;;4.32;3.92;;;23.90;99.90;;;;;;5088742;28;20261;-76
2021/06/28 07:45:26;;;;;;;5.95;4.32;;;24.10;99.90;;;;;;5070802;28;20173;-76
2021/06/28 07:47:52;;;;;;;4.90;4.50;;;24.10;99.90;;;;;;5090428;28;20174;-76
2021/06/28 07:50:19;;;;;;;4.93;4.15;;;24.10;99.90;;;;;;5088509;28;20212;-76
2021/06/28 07:52:45;;;;;;;4.18;3.88;;;24.30;99.90;;;;;;5089771;28;20190;-76
2021/06/28 07:55:12;;;;;;;4.63;3.33;;;24.50;99.90;;;;;;5073324;28;20236;-77
2021/06/28 07:57:38;;;;;;;4.78;4.30;;;24.40;99.90;;;;;;5074400;28;20187;-76
2021/06/28 08:00:10;;;;;;;4.97;4.40;;;24.50;99.90;;;;;;5082948;28;20677;-73
2021/06/28 08:02:35;;;;;;;5.32;4.82;;;24.40;99.90;;;;;;5073656;28;20692;-75
2021/06/28 08:05:02;;;;;;;5.60;4.95;;;24.40;99.90;;;;;;5080739;28;20202;-75
2021/06/28 08:07:29;;;;;;;5.15;4.60;;;24.20;99.90;;;;;;5088176;28;21034;-76
2021/06/28 08:09:54;;;;;;;5.20;4.65;;;23.80;99.90;;;;;;5071740;28;20199;-76
2021/06/28 08:12:19;;;;;;;5.03;4.57;;;23.70;99.90;;;;;;5088073;28;20186;-76
2021/06/28 08:14:45;;;;;;;6.22;5.10;;;23.80;99.90;;;;;;5084545;28;20214;-75
2021/06/28 08:17:11;;;;;;;4.88;4.47;;;23.50;99.90;;;;;;5085539;28;20641;-74
2021/06/28 08:19:36;;;;;;;4.97;4.57;;;23.20;99.90;;;;;;5072139;28;20656;-76
2021/06/28 08:22:03;;;;;;;5.45;4.65;;;23.30;99.90;;;;;;5089376;28;20175;-76
2021/06/28 08:24:28;;;;;;;6.70;4.78;;;23.40;99.90;;;;;;5089924;28;20489;-76
2021/06/28 08:26:54;;;;;;;5.00;4.60;;;23.70;99.90;;;;;;5092040;28;20189;-77
2021/06/28 08:29:19;;;;;;;5.38;4.50;;;23.50;99.90;;;;;;5090122;28;20670;-77
2021/06/28 08:31:45;;;;;;;6.20;5.00;;;23.60;99.90;;;;;;5079442;28;20166;-76
2021/06/28 08:34:13;;;;;;;5.30;4.80;;;23.80;99.90;;;;;;5094693;28;20270;-77
2021/06/28 08:36:39;;;;;;;5.20;4.70;;;23.90;99.90;;;;;;5095317;28;21101;-77
2021/06/28 08:39:05;;;;;;;4.70;4.30;;;24.10;99.90;;;;;;5080697;28;20173;-77
2021/06/28 08:41:32;;;;;;;4.50;4.05;;;23.90;99.90;;;;;;5098903;28;20181;-78
2021/06/28 08:43:58;;;;;;;4.90;4.50;;;23.90;99.90;;;;;;5076892;28;20195;-77
2021/06/28 08:46:23;;;;;;;5.22;4.65;;;24.10;99.90;;;;;;5093563;28;20190;-76
2021/06/28 08:48:49;;;;;;;4.10;3.70;;;24.40;99.90;;;;;;5087496;28;20235;-77
2021/06/28 08:51:15;;;;;;;4.78;4.15;;;24.40;99.90;;;;;;5077034;28;20233;-78
2021/06/28 08:53:41;;;;;;;5.63;4.55;;;24.60;99.90;;;;;;5075951;28;20187;-78
2021/06/28 08:56:07;;;;;;;4.80;4.28;;;24.80;99.90;;;;;;5089624;28;20646;-77
2021/06/28 08:58:34;;;;;;;5.53;4.55;;;24.60;99.90;;;;;;5093651;28;20174;-77
2021/06/28 09:01:00;;;;;;;6.20;5.15;;;24.50;99.90;;;;;;5087709;28;20211;-77
2021/06/28 09:03:25;;;;;;;6.28;4.50;;;24.20;99.90;;;;;;5096864;28;20201;-77
2021/06/28 09:06:00;;;;;;;5.80;4.13;;;24.30;99.90;;;;;;5095255;28;20185;-77
2021/06/28 09:08:26;;;;;;;5.30;4.47;;;24.30;99.90;;;;;;5076568;28;20599;-77
2021/06/28 09:10:51;;;;;;;5.35;4.85;;;24.30;99.90;;;;;;5087800;28;20227;-77
2021/06/28 09:13:17;;;;;;;6.88;4.43;;;24.40;99.90;;;;;;5087911;28;20175;-74
2021/06/28 09:15:49;;;;;;;5.68;4.00;;;24.00;99.90;;;;;;5115259;28;20195;-75
2021/06/28 09:18:16;;;;;;;7.07;4.57;;;24.10;99.90;;;;;;5095920;28;20165;-75
2021/06/28 09:20:42;;;;;;;4.80;4.40;;;24.10;99.90;;;;;;5115085;28;20226;-74
2021/06/28 09:23:19;;;;;;;5.65;4.65;;;23.80;99.90;;;;;;5114376;28;20203;-74
2021/06/28 09:25:44;;;;;;;5.32;4.82;;;23.70;99.90;;;;;;5115415;28;20186;-76
2021/06/28 09:28:10;;;;;;;5.03;4.53;;;23.70;99.90;;;;;;5114245;28;20179;-76
2021/06/28 09:30:44;;;;;;;4.95;4.55;;;23.70;99.90;;;;;;5110341;28;20210;-76
2021/06/28 09:33:10;;;;;;;5.07;4.60;;;23.80;99.90;;;;;;5075483;28;20312;-75
2021/06/28 09:35:39;;;;;;;5.47;4.63;;;23.60;99.90;;;;;;5081889;28;20202;-75
2021/06/28 09:38:27;;;;;;;5.25;4.32;;;23.50;99.90;;;;;;5094711;28;20179;-75
2021/06/28 09:40:53;;;;;;;4.55;4.25;;;24.00;99.90;;;;;;5081253;28;20227;-76
2021/06/28 09:43:24;;;;;;;4.70;4.30;;;24.10;99.90;;;;;;5086510;28;20272;-75
2021/06/28 09:45:54;;;;;;;5.15;4.57;;;24.20;99.90;;;;;;5094775;28;20557;-77
2021/06/28 09:48:29;;;;;;;4.22;3.80;;;24.30;99.90;;;;;;5089243;28;20183;-78
2021/06/28 09:51:21;;;;;;;5.00;4.30;;;24.20;99.90;;;;;;5098001;28;20214;-80
2021/06/28 09:53:55;;;;;;;4.68;4.28;;;24.40;99.90;;;;;;5081305;28;20210;-81
2021/06/28 09:56:51;;;;;;;6.50;4.38;;;24.20;99.90;;;;;;5094333;28;20179;-82
2021/06/28 09:59:24;;;;;;;4.55;4.20;;;24.00;99.90;;;;;;5087575;28;20520;-84
2021/06/28 10:01:54;;;;;;;4.63;4.22;;;23.90;99.90;;;;;;5084329;28;20209;-80
2021/06/28 10:04:42;;;;;;;5.43;4.90;;;23.80;99.90;;;;;;5088018;28;20710;-81
2021/06/28 10:07:35;;;;;;;4.82;4.40;;;24.10;99.90;;;;;;5073067;28;20191;-79
2021/06/28 10:10:30;;;;;;;6.18;4.60;;;24.30;99.90;;;;;;5095856;28;20584;-81
2021/06/28 10:12:55;;;;;;;4.88;4.15;;;24.00;99.90;;;;;;5086927;28;20199;-77
2021/06/28 10:15:24;;;;;;;4.13;3.72;;;23.80;99.90;;;;;;5086111;28;20283;-82
2021/06/28 10:17:50;;;;;;;7.28;4.70;;;23.90;99.90;;;;;;5092663;28;20195;-79
2021/06/28 10:20:24;;;;;;;5.95;4.38;;;24.10;99.90;;;;;;5098539;28;20206;-80
2021/06/28 10:22:51;;;;;;;6.45;4.55;;;24.10;99.90;;;;;;5089674;28;20710;-80
2021/06/28 10:25:20;;;;;;;5.15;4.40;;;23.90;99.90;;;;;;5091920;28;20569;-78
2021/06/28 10:27:46;;;;;;;4.40;4.00;;;24.30;99.90;;;;;;5092608;28;20166;-79
2021/06/28 10:30:14;;;;;;;4.78;4.28;;;24.60;99.90;;;;;;5083530;28;20206;-80
2021/06/28 10:32:44;;;;;;;4.60;4.13;;;24.50;99.90;;;;;;5090184;28;20256;-76
2021/06/28 10:35:13;;;;;;;4.10;3.80;;;24.70;99.90;;;;;;5095893;28;20693;-79
2021/06/28 10:37:45;;;;;;;4.63;3.80;;;24.70;99.90;;;;;;5099525;28;20179;-78
2021/06/28 10:40:18;;;;;;;4.10;3.72;;;24.90;99.90;;;;;;5092067;28;20203;-79
2021/06/28 10:42:47;;;;;;;5.07;3.67;;;24.90;99.90;;;;;;5088017;28;20194;-80
2021/06/28 10:45:17;;;;;;;6.38;4.88;;;24.80;99.90;;;;;;5103637;28;20342;-80
2021/06/28 10:48:05;;;;;;;4.63;3.97;;;24.80;99.90;;;;;;5095856;28;20882;-80
2021/06/28 10:51:10;;;;;;;4.72;4.07;;;24.90;99.90;;;;;;5082831;28;20242;-78
2021/06/28 10:53:36;;;;;;;5.82;4.03;;;25.10;99.90;;;;;;5020055;28;20201;-77
2021/06/28 10:58:56;;;;;;;3.65;3.38;;;24.90;99.90;;;;;;5074449;28;20199;-79
2021/06/28 11:01:40;;;;;;;4.15;3.75;;;25.20;99.90;;;;;;5097354;28;20258;-80
2021/06/28 11:04:08;;;;;;;3.95;3.65;;;25.00;99.90;;;;;;5076498;28;20310;-79
2021/06/28 11:06:34;;;;;;;4.57;3.90;;;24.80;99.90;;;;;;5100692;28;20639;-79
2021/06/28 11:09:02;;;;;;;3.85;3.55;;;25.20;99.90;;;;;;5102425;28;20166;-78
2021/06/28 11:11:46;;;;;;;5.20;4.22;;;25.20;99.90;;;;;;5088874;28;20168;-80
2021/06/28 11:14:21;;;;;;;4.18;3.78;;;24.90;99.90;;;;;;5098607;28;20245;-74
2021/06/28 11:17:08;;;;;;;4.63;4.22;;;25.00;99.90;;;;;;5106465;28;20209;-77
2021/06/28 11:20:04;;;;;;;5.47;4.40;;;24.90;99.90;;;;;;5100089;28;20194;-80
2021/06/28 11:22:37;;;;;;;4.32;3.90;;;24.70;99.90;;;;;;5111046;28;20178;-80
2021/06/28 11:25:08;;;;;;;4.50;4.10;;;24.90;99.90;;;;;;5093884;28;20245;-78
2021/06/28 11:27:41;;;;;;;4.97;4.53;;;24.50;99.90;;;;;;5076594;28;20649;-79
2021/06/28 11:30:21;;;;;;;7.35;3.85;;;24.10;99.90;;;;;;5065521;28;20685;-78
2021/06/28 11:33:05;;;;;;;4.18;3.78;;;23.70;99.90;;;;;;5087180;28;20274;-79
2021/06/28 11:35:34;;;;;;;4.30;4.00;;;23.50;99.90;;;;;;5089893;28;20243;-79
2021/06/28 11:38:26;;;;;;;4.43;3.88;;;23.50;99.90;;;;;;5089479;28;20178;-79
2021/06/28 11:41:00;;;;;;;5.25;4.70;;;23.80;99.90;;;;;;5080572;28;20191;-71
2021/06/28 11:43:47;;;;;;;5.05;4.03;;;23.60;99.90;;;;;;5087627;28;20691;-78
2021/06/28 11:46:26;;;;;;;5.30;4.05;;;24.20;99.90;;;;;;5065300;28;20179;-71
2021/06/28 11:48:56;;;;;;;4.95;4.03;;;24.50;99.90;;;;;;5089214;28;20175;-71
2021/06/28 11:51:23;;;;;;;6.07;5.10;;;24.80;99.90;;;;;;5087539;28;20209;-72
2021/06/28 11:54:06;;;;;;;4.70;4.30;;;25.00;99.90;;;;;;5088842;28;20188;-72
2021/06/28 11:56:37;;;;;;;6.85;5.95;;;24.80;99.90;;;;;;5105566;22;20227;-64
2021/06/28 11:59:06;;;;;;;4.53;4.03;;;25.00;99.90;;;;;;5110494;28;20337;-65
2021/06/28 12:01:44;;;;;;;4.28;3.88;;;24.70;99.90;;;;;;5110055;28;20682;-65
2021/06/28 12:04:23;;;;;;;4.95;4.55;;;24.60;99.90;;;;;;5105457;28;20209;-65
2021/06/28 12:06:50;;;;;;;5.25;4.40;;;24.50;99.90;;;;;;5094585;28;20189;-66
2021/06/28 12:09:21;;;;;;;3.92;3.63;;;24.80;99.90;;;;;;5090112;28;20181;-65
2021/06/28 12:11:59;;;;;;;4.90;4.40;;;24.70;99.90;;;;;;5082290;28;20181;-66
2021/06/28 12:14:42;;;;;;;4.15;3.75;;;24.70;99.90;;;;;;5089027;28;20170;-66
2021/06/28 12:17:16;;;;;;;4.15;3.83;;;24.40;99.90;;;;;;5089959;28;20204;-66
2021/06/28 12:19:45;;;;;;;5.53;4.10;;;24.20;99.90;;;;;;5089349;28;20194;-66
2021/06/28 12:22:14;;;;;;;4.13;3.70;;;24.20;99.90;;;;;;5089212;28;20719;-66
2021/06/28 12:24:41;;;;;;;4.18;3.78;;;24.40;99.90;;;;;;5089498;28;20820;-66
2021/06/28 12:27:17;;;;;;;4.55;3.95;;;24.70;99.90;;;;;;5089120;28;20223;-66
2021/06/28 12:29:46;;;;;;;4.63;4.22;;;25.00;99.90;;;;;;5088982;28;20196;-66
2021/06/28 12:32:26;;;;;;;4.28;3.95;;;24.70;99.90;;;;;;5089472;28;20210;-66
2021/06/28 12:34:56;;;;;;;3.90;3.60;;;24.60;99.90;;;;;;5082435;28;20459;-66
2021/06/28 12:37:30;;;;;;;4.38;4.00;;;24.40;99.90;;;;;;5088738;28;20197;-64
2021/06/28 12:40:15;;;;;;;4.07;3.67;;;24.70;99.90;;;;;;5082317;28;20190;-66
2021/06/28 12:42:43;;;;;;;5.55;3.40;;;24.60;99.90;;;;;;5088502;28;20193;-66
2021/06/28 12:45:11;;;;;;;4.03;3.50;;;24.90;99.90;;;;;;5065800;28;20438;-65
2021/06/28 12:47:38;;;;;;;4.43;3.55;;;25.30;99.90;;;;;;5089827;28;20189;-66
2021/06/28 12:50:04;;;;;;;3.58;2.95;;;24.90;99.90;;;;;;5089405;28;20384;-65
2021/06/28 12:52:37;;;;;;;4.03;3.42;;;24.40;99.90;;;;;;5088381;28;20266;-65